createdAt,value
2018-06-21T00:02:02.487Z,93.50
2018-06-21T00:04:33.391Z,93.50
2018-06-21T00:07:09.337Z,93.20
2018-06-21T00:12:18.401Z,93.30
2018-06-21T00:14:47.759Z,93.40
2018-06-21T00:17:19.303Z,93.40
2018-06-21T00:22:18.131Z,93.60
2018-06-21T00:27:18.107Z,93.80
2018-06-21T00:29:48.339Z,93.70
2018-06-21T00:34:48.174Z,93.80
2018-06-21T00:37:19.432Z,93.90
2018-06-21T00:39:49.728Z,93.90
2018-06-21T00:42:21.181Z,93.80
2018-06-21T00:44:59.691Z,93.90
2018-06-21T00:47:29.361Z,94.00
2018-06-21T00:50:02.111Z,94.10
2018-06-21T00:52:31.356Z,94.00
2018-06-21T00:55:00.274Z,94.00
2018-06-21T00:57:31.031Z,93.90
2018-06-21T01:00:01.118Z,94.30
2018-06-21T01:02:32.264Z,93.80
2018-06-21T01:05:03.223Z,93.70
2018-06-21T01:07:34.622Z,93.80
2018-06-21T01:10:04.486Z,93.90
2018-06-21T01:12:33.679Z,94.10
2018-06-21T01:15:03.352Z,94.40
2018-06-21T01:17:34.043Z,94.40
2018-06-21T01:20:09.203Z,94.50
2018-06-21T01:22:39.726Z,94.70
2018-06-21T01:25:10.328Z,94.50
2018-06-21T01:27:39.924Z,94.80
2018-06-21T01:32:44.710Z,94.80
2018-06-21T01:35:14.217Z,94.90
2018-06-21T01:37:45.866Z,95.20
2018-06-21T01:42:51.047Z,95.80
2018-06-21T01:45:21.041Z,95.80
2018-06-21T01:47:50.343Z,95.90
2018-06-21T01:50:20.225Z,96.10
2018-06-21T01:55:26.139Z,96.70
2018-06-21T02:00:30.309Z,96.80
2018-06-21T02:03:00.452Z,97.00
2018-06-21T02:05:32.091Z,97.40
2018-06-21T02:08:03.081Z,97.60
2018-06-21T02:10:33.305Z,97.40
2018-06-21T02:13:03.286Z,97.30
2018-06-21T02:15:34.979Z,97.50
2018-06-21T02:18:05.158Z,97.50
2018-06-21T02:20:34.139Z,97.50
2018-06-21T02:23:03.856Z,97.80
2018-06-21T02:25:34.070Z,97.80
2018-06-21T02:30:35.048Z,97.60
2018-06-21T02:33:05.271Z,97.50
2018-06-21T02:35:35.024Z,97.60
2018-06-21T02:38:03.925Z,97.50
2018-06-21T02:40:33.567Z,97.50
2018-06-21T02:43:03.131Z,97.70
2018-06-21T02:45:33.401Z,97.70
2018-06-21T02:48:03.279Z,97.80
2018-06-21T02:50:41.995Z,97.70
2018-06-21T02:53:12.211Z,97.80
2018-06-21T02:58:12.240Z,97.60
2018-06-21T03:00:41.362Z,97.30
2018-06-21T03:03:11.294Z,97.30
2018-06-21T03:08:15.206Z,97.10
2018-06-21T03:10:46.072Z,96.50
2018-06-21T03:13:16.481Z,96.90
2018-06-21T03:15:46.943Z,96.80
2018-06-21T03:18:16.410Z,97.10
2018-06-21T03:20:46.019Z,96.70
2018-06-21T03:23:16.911Z,96.80
2018-06-21T03:25:47.517Z,96.80
2018-06-21T03:28:18.632Z,96.70
2018-06-21T03:30:50.272Z,96.70
2018-06-21T03:33:31.996Z,96.00
2018-06-21T03:36:03.311Z,96.60
2018-06-21T03:38:34.995Z,96.40
2018-06-21T03:41:05.850Z,96.40
2018-06-21T03:43:36.224Z,96.10
2018-06-21T03:46:05.483Z,96.10
2018-06-21T03:48:35.235Z,95.80
2018-06-21T03:51:05.292Z,95.50
2018-06-21T03:53:36.307Z,95.70
2018-06-21T03:56:06.944Z,95.40
2018-06-21T03:58:37.439Z,94.70
2018-06-21T04:01:07.589Z,94.50
2018-06-21T04:03:37.091Z,94.50
2018-06-21T04:06:07.101Z,95.00
2018-06-21T04:08:38.347Z,94.60
2018-06-21T04:11:07.456Z,94.60
2018-06-21T04:13:37.570Z,94.70
2018-06-21T04:16:07.557Z,94.80
2018-06-21T04:21:09.452Z,94.60
2018-06-21T04:23:39.120Z,95.10
2018-06-21T04:26:08.820Z,94.90
2018-06-21T04:28:38.956Z,95.20
2018-06-21T04:31:08.247Z,94.50
2018-06-21T04:33:39.615Z,95.10
2018-06-21T04:38:40.704Z,93.90
2018-06-21T04:41:09.647Z,94.00
2018-06-21T04:43:40.230Z,93.40
2018-06-21T04:46:10.066Z,93.70
2018-06-21T04:48:40.974Z,93.70
2018-06-21T04:51:09.872Z,93.80
2018-06-21T04:53:38.886Z,94.40
2018-06-21T04:56:09.011Z,95.30
2018-06-21T04:58:38.146Z,94.80
2018-06-21T05:01:08.429Z,94.50
2018-06-21T05:03:37.851Z,93.50
2018-06-21T05:06:07.181Z,93.80
2018-06-21T05:08:37.457Z,93.10
2018-06-21T05:11:08.863Z,93.40
2018-06-21T05:13:43.599Z,93.30
2018-06-21T05:16:15.941Z,92.60
2018-06-21T05:18:45.884Z,92.60
2018-06-21T05:21:16.978Z,92.80
2018-06-21T05:23:52.898Z,93.10
2018-06-21T05:26:23.810Z,93.30
2018-06-21T05:28:55.640Z,92.60
2018-06-21T05:31:26.847Z,93.10
2018-06-21T05:33:57.667Z,93.10
2018-06-21T05:36:28.022Z,93.50
2018-06-21T05:38:57.256Z,93.70
2018-06-21T05:41:27.927Z,93.00
2018-06-21T05:43:57.754Z,93.00
2018-06-21T05:46:28.574Z,93.30
2018-06-21T05:48:58.956Z,93.40
2018-06-21T05:51:29.546Z,93.30
2018-06-21T05:53:59.886Z,93.20
2018-06-21T05:56:29.939Z,93.50
2018-06-21T05:58:59.590Z,93.60
2018-06-21T06:01:29.707Z,93.70
2018-06-21T06:04:00.402Z,93.80
2018-06-21T06:06:31.715Z,93.90
2018-06-21T06:09:02.397Z,94.00
2018-06-21T06:11:31.874Z,94.20
2018-06-21T06:14:02.063Z,94.00
2018-06-21T06:16:31.779Z,94.70
2018-06-21T06:19:03.452Z,94.50
2018-06-21T06:21:33.535Z,95.20
2018-06-21T06:24:02.998Z,94.90
2018-06-21T06:26:32.774Z,95.30
2018-06-21T06:29:03.551Z,94.90
2018-06-21T06:31:38.723Z,94.70
2018-06-21T06:34:09.899Z,95.10
2018-06-21T06:36:39.627Z,95.10
2018-06-21T06:39:20.295Z,94.40
2018-06-21T06:41:53.101Z,94.90
2018-06-21T06:44:22.408Z,94.90
2018-06-21T06:46:51.575Z,95.60
2018-06-21T06:49:22.771Z,95.90
2018-06-21T06:51:53.903Z,95.10
2018-06-21T06:54:25.389Z,95.50
2018-06-21T06:59:28.679Z,95.30
2018-06-21T07:01:58.976Z,95.50
2018-06-21T07:04:28.898Z,95.70
2018-06-21T07:06:57.778Z,95.30
2018-06-21T07:09:28.830Z,95.70
2018-06-21T07:11:59.667Z,95.50
2018-06-21T07:14:29.856Z,95.40
2018-06-21T07:16:59.921Z,95.10
2018-06-21T07:19:35.514Z,95.70
2018-06-21T07:22:05.001Z,95.60
2018-06-21T07:24:34.510Z,94.90
2018-06-21T07:27:03.791Z,94.90
2018-06-21T07:29:33.396Z,95.90
2018-06-21T07:32:04.518Z,96.30
2018-06-21T07:34:35.333Z,95.10
2018-06-21T07:37:05.539Z,95.40
2018-06-21T07:39:35.419Z,94.80
2018-06-21T07:42:07.421Z,94.80
2018-06-21T07:44:38.792Z,94.70
2018-06-21T07:47:08.776Z,94.70
2018-06-21T07:49:37.491Z,95.10
2018-06-21T07:52:08.451Z,95.00
2018-06-21T07:54:38.719Z,95.70
2018-06-21T07:57:07.751Z,95.30
2018-06-21T07:59:37.759Z,95.60
2018-06-21T08:02:08.653Z,95.60
2018-06-21T08:04:39.523Z,95.40
2018-06-21T08:07:10.086Z,95.30
2018-06-21T08:09:39.310Z,95.50
2018-06-21T08:12:08.823Z,95.70
2018-06-21T08:14:38.560Z,95.30
2018-06-21T08:17:09.657Z,96.00
2018-06-21T08:19:40.787Z,96.00
2018-06-21T08:22:10.088Z,95.50
2018-06-21T08:24:39.857Z,95.10
2018-06-21T08:27:10.938Z,95.50
2018-06-21T08:29:41.023Z,95.60
2018-06-21T08:32:11.090Z,95.20
2018-06-21T08:34:44.138Z,95.20
2018-06-21T08:37:14.182Z,95.00
2018-06-21T08:39:44.377Z,95.30
2018-06-21T08:42:14.974Z,95.40
2018-06-21T08:44:46.258Z,95.40
2018-06-21T08:47:16.276Z,95.30
2018-06-21T08:49:45.654Z,95.80
2018-06-21T08:52:15.824Z,95.60
2018-06-21T08:54:45.783Z,95.40
2018-06-21T08:57:16.012Z,95.50
2018-06-21T08:59:47.580Z,95.60
2018-06-21T09:02:17.705Z,95.40
2018-06-21T09:04:48.486Z,94.30
2018-06-21T09:07:18.384Z,94.00
2018-06-21T09:09:48.360Z,94.60
2018-06-21T09:12:18.417Z,94.30
2018-06-21T09:14:48.388Z,93.80
2018-06-21T09:17:39.338Z,93.50
2018-06-21T09:20:09.329Z,94.00
2018-06-21T09:22:39.204Z,92.80
2018-06-21T09:25:08.791Z,92.10
2018-06-21T09:27:39.284Z,91.40
2018-06-21T09:30:09.144Z,91.60
2018-06-21T09:32:38.975Z,90.10
2018-06-21T09:35:09.048Z,89.90
2018-06-21T09:37:47.353Z,91.00
2018-06-21T09:40:21.620Z,90.10
2018-06-21T09:42:57.257Z,90.30
2018-06-21T09:45:31.120Z,90.30
2018-06-21T09:48:05.952Z,90.60
2018-06-21T09:50:35.480Z,90.20
2018-06-21T09:53:05.417Z,90.00
2018-06-21T09:55:36.526Z,89.70
2018-06-21T09:58:06.347Z,90.10
2018-06-21T10:00:41.455Z,88.90
2018-06-21T10:03:11.414Z,90.40
2018-06-21T10:05:41.904Z,90.50
2018-06-21T10:08:11.783Z,89.10
2018-06-21T10:10:41.704Z,88.40
2018-06-21T10:13:11.716Z,85.90
2018-06-21T10:15:44.753Z,90.30
2018-06-21T10:18:14.807Z,90.10
2018-06-21T10:20:44.532Z,88.30
2018-06-21T10:23:14.972Z,87.60
2018-06-21T10:25:44.917Z,85.30
2018-06-21T10:28:14.999Z,84.50
2018-06-21T10:30:45.107Z,85.70
2018-06-21T10:33:16.199Z,83.30
2018-06-21T10:35:46.686Z,82.80
2018-06-21T10:38:16.214Z,83.30
2018-06-21T10:40:46.301Z,83.50
2018-06-21T10:43:17.049Z,80.80
2018-06-21T10:45:47.068Z,80.80
2018-06-21T10:48:16.857Z,80.90
2018-06-21T10:50:46.527Z,81.90
2018-06-21T10:53:16.578Z,82.20
2018-06-21T10:55:46.748Z,80.30
2018-06-21T10:58:16.626Z,80.20
2018-06-21T11:00:46.584Z,79.10
2018-06-21T11:03:16.125Z,78.70
2018-06-21T11:05:45.938Z,79.90
2018-06-21T11:08:16.917Z,80.60
2018-06-21T11:10:47.500Z,80.50
2018-06-21T11:13:17.283Z,80.20
2018-06-21T11:15:47.103Z,78.60
2018-06-21T11:18:17.214Z,77.70
2018-06-21T11:20:46.563Z,77.50
2018-06-21T11:23:15.679Z,78.30
2018-06-21T11:25:46.709Z,76.80
2018-06-21T11:28:18.088Z,76.20
2018-06-21T11:30:48.244Z,77.60
2018-06-21T11:33:18.244Z,76.40
2018-06-21T11:35:48.494Z,76.70
2018-06-21T11:38:19.008Z,77.00
2018-06-21T11:40:48.895Z,76.80
2018-06-21T11:43:18.861Z,77.50
2018-06-21T11:45:48.509Z,79.30
2018-06-21T11:48:18.496Z,79.30
2018-06-21T11:50:49.263Z,82.00
2018-06-21T11:53:18.572Z,83.40
2018-06-21T11:55:48.448Z,83.00
2018-06-21T11:58:18.575Z,84.10
2018-06-21T12:00:47.519Z,84.80
2018-06-21T12:03:18.277Z,84.60
2018-06-21T12:05:49.178Z,87.30
2018-06-21T12:08:20.205Z,87.80
2018-06-21T12:10:51.571Z,86.00
2018-06-21T12:13:23.051Z,86.10
2018-06-21T12:15:53.515Z,84.40
2018-06-21T12:18:29.839Z,85.30
2018-06-21T12:20:59.539Z,85.30
2018-06-21T12:23:30.043Z,81.70
2018-06-21T12:25:59.667Z,81.00
2018-06-21T12:28:30.400Z,79.20
2018-06-21T12:31:01.319Z,79.00
2018-06-21T12:33:31.136Z,80.60
2018-06-21T12:36:02.311Z,81.90
2018-06-21T12:38:32.447Z,82.00
2018-06-21T12:41:02.999Z,82.40
2018-06-21T12:43:33.165Z,84.20
2018-06-21T12:46:03.175Z,84.90
2018-06-21T12:48:33.663Z,83.40
2018-06-21T12:51:05.195Z,82.00
2018-06-21T12:53:35.057Z,83.10
2018-06-21T12:56:05.129Z,83.20
2018-06-21T12:58:35.051Z,82.20
2018-06-21T13:01:05.228Z,80.70
2018-06-21T13:03:35.150Z,80.20
2018-06-21T13:06:05.822Z,78.30
2018-06-21T13:08:47.636Z,77.50
2018-06-21T13:12:33.035Z,77.90
2018-06-21T13:15:03.200Z,76.00
2018-06-21T13:17:33.600Z,76.00
2018-06-21T13:20:05.189Z,76.80
2018-06-21T13:22:36.448Z,77.80
2018-06-21T13:25:05.991Z,77.70
2018-06-21T13:27:36.405Z,78.40
2018-06-21T13:30:06.969Z,78.90
2018-06-21T13:32:37.357Z,80.20
2018-06-21T13:35:08.664Z,81.20
2018-06-21T13:37:38.350Z,79.50
2018-06-21T13:40:09.250Z,81.40
2018-06-21T13:42:38.345Z,82.40
2018-06-21T13:45:09.017Z,83.90
2018-06-21T13:47:41.122Z,86.70
2018-06-21T13:50:12.359Z,88.60
2018-06-21T13:55:14.097Z,91.50
2018-06-21T13:57:45.016Z,94.10
2018-06-21T14:00:15.426Z,94.40
2018-06-21T14:02:46.155Z,96.00
2018-06-21T14:05:17.822Z,96.70
2018-06-21T14:07:47.988Z,96.90
2018-06-21T14:10:18.974Z,97.60
2018-06-21T14:12:48.960Z,98.10
2018-06-21T14:15:19.802Z,97.80
2018-06-21T14:17:50.218Z,97.70
2018-06-21T14:20:20.128Z,97.40
2018-06-21T14:22:49.901Z,97.80
2018-06-21T14:25:20.945Z,97.90
2018-06-21T14:27:52.032Z,97.20
2018-06-21T14:30:23.150Z,97.00
2018-06-21T14:32:54.259Z,97.20
2018-06-21T14:35:26.316Z,96.40
2018-06-21T14:37:56.023Z,96.70
2018-06-21T14:40:26.214Z,96.20
2018-06-21T14:42:55.869Z,94.80
2018-06-21T14:45:27.353Z,95.20
2018-06-21T14:47:58.027Z,94.40
2018-06-21T14:50:28.027Z,93.90
2018-06-21T14:52:57.935Z,93.60
2018-06-21T14:55:29.566Z,94.10
2018-06-21T14:58:00.119Z,92.40
2018-06-21T15:00:31.306Z,93.30
2018-06-21T15:03:02.388Z,93.70
2018-06-21T15:05:33.832Z,93.00
2018-06-21T15:08:04.531Z,92.60
2018-06-21T15:10:34.627Z,92.50
2018-06-21T15:13:04.915Z,92.80
2018-06-21T15:15:35.837Z,92.60
2018-06-21T15:18:06.805Z,92.60
2018-06-21T15:24:39.467Z,93.00
2018-06-21T15:27:11.064Z,92.50
2018-06-21T15:29:43.120Z,92.40
2018-06-21T15:32:13.235Z,93.30
2018-06-21T15:34:43.627Z,92.80
2018-06-21T15:37:19.843Z,92.60
2018-06-21T15:39:50.029Z,93.10
2018-06-21T15:42:20.615Z,93.40
2018-06-21T15:44:52.642Z,92.70
2018-06-21T15:47:23.483Z,92.50
2018-06-21T15:51:23.006Z,92.60
2018-06-21T15:53:53.707Z,92.90
2018-06-21T15:56:23.305Z,91.30
2018-06-21T15:58:57.104Z,90.30
2018-06-21T16:01:28.728Z,90.50
2018-06-21T16:03:59.050Z,89.60
2018-06-21T16:06:29.181Z,90.50
2018-06-21T16:08:58.810Z,90.40
2018-06-21T16:11:27.890Z,91.10
2018-06-21T16:13:59.352Z,91.10
2018-06-21T16:16:29.609Z,91.70
2018-06-21T16:19:06.091Z,92.00
2018-06-21T16:21:37.234Z,92.10
2018-06-21T16:24:07.575Z,91.30
2018-06-21T16:26:37.182Z,91.40
2018-06-21T16:29:07.160Z,91.50
2018-06-21T16:31:38.954Z,91.80
2018-06-21T16:34:18.026Z,91.80
2018-06-21T16:36:48.043Z,91.60
2018-06-21T16:39:17.899Z,92.30
2018-06-21T16:41:47.238Z,93.10
2018-06-21T16:44:17.158Z,93.50
2018-06-21T16:46:47.665Z,93.30
2018-06-21T16:49:17.449Z,93.90
2018-06-21T16:51:46.782Z,93.90
2018-06-21T16:54:16.750Z,94.30
2018-06-21T16:56:47.258Z,93.70
2018-06-21T16:59:17.885Z,93.90
2018-06-21T17:01:48.380Z,93.20
2018-06-21T17:04:18.249Z,93.20
2018-06-21T17:06:47.847Z,93.90
2018-06-21T17:09:18.149Z,93.90
2018-06-21T17:11:48.452Z,93.70
2018-06-21T17:14:18.164Z,93.90
2018-06-21T17:16:48.036Z,93.70
2018-06-21T17:19:17.640Z,94.40
2018-06-21T17:21:47.814Z,93.90
2018-06-21T17:24:17.970Z,94.50
2018-06-21T17:26:51.394Z,94.20
2018-06-21T17:29:21.638Z,94.00
2018-06-21T17:31:51.723Z,93.50
2018-06-21T17:34:21.825Z,93.30
2018-06-21T17:36:51.891Z,95.10
2018-06-21T17:39:21.013Z,95.10
2018-06-21T17:41:50.849Z,95.00
2018-06-21T17:44:21.012Z,94.10
2018-06-21T17:46:51.595Z,94.60
2018-06-21T17:49:23.013Z,94.50
2018-06-21T17:51:53.672Z,94.10
2018-06-21T17:54:24.563Z,94.50
2018-06-21T17:56:54.861Z,95.10
2018-06-21T17:59:25.470Z,95.30
2018-06-21T18:01:56.820Z,95.30
2018-06-21T18:04:26.858Z,95.30
2018-06-21T18:06:58.368Z,94.90
2018-06-21T18:09:29.682Z,95.10
2018-06-21T18:12:00.326Z,94.80
2018-06-21T18:14:40.061Z,94.80
2018-06-21T18:17:10.912Z,94.90
2018-06-21T18:19:40.911Z,94.60
2018-06-21T18:22:12.183Z,94.60
2018-06-21T18:24:41.512Z,94.80
2018-06-21T18:27:11.146Z,95.00
2018-06-21T18:29:42.235Z,94.80
2018-06-21T18:32:11.481Z,95.00
2018-06-21T18:34:41.731Z,95.50
2018-06-21T18:37:11.765Z,95.30
2018-06-21T18:39:41.677Z,95.10
2018-06-21T18:42:13.502Z,94.70
2018-06-21T18:44:44.650Z,94.80
2018-06-21T18:47:15.144Z,94.60
2018-06-21T18:49:45.516Z,95.20
2018-06-21T18:52:16.416Z,95.80
2018-06-21T18:54:54.328Z,95.30
2018-06-21T18:57:32.808Z,95.70
2018-06-21T19:00:02.903Z,95.80
2018-06-21T19:02:32.521Z,95.20
2018-06-21T19:05:03.703Z,95.50
2018-06-21T19:07:35.889Z,95.50
2018-06-21T19:10:10.958Z,95.30
2018-06-21T19:12:44.062Z,94.80
2018-06-21T19:15:13.665Z,94.70
2018-06-21T19:17:43.640Z,94.90
2018-06-21T19:20:12.941Z,94.90
2018-06-21T19:22:42.775Z,95.10
2018-06-21T19:25:12.727Z,95.30
2018-06-21T19:27:42.226Z,95.80
2018-06-21T19:30:11.414Z,95.40
2018-06-21T19:32:41.579Z,95.60
2018-06-21T19:35:11.545Z,95.70
2018-06-21T19:37:41.443Z,95.80
2018-06-21T19:40:11.783Z,95.80
2018-06-21T19:42:42.417Z,95.80
2018-06-21T19:45:12.975Z,96.50
2018-06-21T19:47:44.160Z,96.10
2018-06-21T19:50:13.567Z,96.10
2018-06-21T19:52:43.043Z,96.10
2018-06-21T19:55:13.527Z,96.10
2018-06-21T19:57:44.843Z,96.60
2018-06-21T20:00:16.759Z,96.40
2018-06-21T20:02:52.485Z,96.50
2018-06-21T20:05:23.013Z,95.30
2018-06-21T20:07:52.159Z,95.40
2018-06-21T20:10:22.336Z,95.50
2018-06-21T20:12:52.396Z,95.50
2018-06-21T20:17:56.505Z,95.80
2018-06-21T20:20:34.704Z,96.10
2018-06-21T20:23:04.648Z,96.00
2018-06-21T20:25:35.162Z,95.70
2018-06-21T20:28:05.577Z,96.00
2018-06-21T20:30:36.684Z,96.10
2018-06-21T20:33:07.648Z,95.90
2018-06-21T20:35:48.283Z,95.80
2018-06-21T20:38:17.585Z,96.00
2018-06-21T20:40:47.102Z,96.10
2018-06-21T20:43:19.040Z,96.00
2018-06-21T20:45:50.115Z,95.90
2018-06-21T20:48:19.431Z,95.90
2018-06-21T20:50:49.067Z,96.10
2018-06-21T20:53:20.573Z,96.00
2018-06-21T20:55:54.554Z,95.70
2018-06-21T20:58:24.886Z,95.40
2018-06-21T21:00:54.578Z,96.00
2018-06-21T21:03:24.919Z,95.80
2018-06-21T21:05:58.588Z,96.10
2018-06-21T21:08:36.183Z,95.70
2018-06-21T21:11:06.970Z,95.60
2018-06-21T21:13:38.490Z,95.90
2018-06-21T21:16:09.219Z,95.80
2018-06-21T21:18:40.545Z,96.10
2018-06-21T21:21:12.920Z,96.10
2018-06-21T21:23:43.656Z,95.60
2018-06-21T21:26:13.919Z,95.70
2018-06-21T21:28:58.663Z,95.30
2018-06-21T21:31:30.246Z,95.50
2018-06-21T21:34:00.447Z,95.50
2018-06-21T21:36:32.383Z,95.70
2018-06-21T21:39:03.347Z,95.80
2018-06-21T21:41:34.537Z,95.90
2018-06-21T21:44:06.976Z,96.20
2018-06-21T21:46:38.625Z,96.10
2018-06-21T21:49:11.583Z,96.40
2018-06-21T21:51:44.804Z,96.30
2018-06-21T21:54:16.815Z,96.50
2018-06-21T21:56:48.670Z,96.50
2018-06-21T21:59:19.199Z,96.50
2018-06-21T22:01:51.290Z,96.70
2018-06-21T22:04:21.536Z,96.20
2018-06-21T22:06:59.701Z,96.10
2018-06-21T22:09:35.962Z,96.20
2018-06-21T22:12:06.199Z,96.40
2018-06-21T22:17:14.348Z,96.60
2018-06-21T22:19:52.104Z,96.50
2018-06-21T22:22:21.880Z,96.50
2018-06-21T22:24:52.836Z,97.00
2018-06-21T22:27:24.526Z,96.50
2018-06-21T22:29:54.644Z,96.80
2018-06-21T22:32:24.659Z,96.20
2018-06-21T22:34:54.697Z,96.40
2018-06-21T22:37:24.727Z,96.90
2018-06-21T22:40:00.676Z,96.50
2018-06-21T22:42:30.647Z,96.50
2018-06-21T22:45:00.509Z,96.90
2018-06-21T22:47:30.871Z,96.90
2018-06-21T22:50:01.052Z,97.20
2018-06-21T22:52:31.992Z,97.20
2018-06-21T22:55:02.795Z,97.10
2018-06-21T22:57:33.524Z,97.30
2018-06-21T23:00:03.887Z,97.70
2018-06-21T23:02:39.020Z,97.80
2018-06-21T23:05:12.150Z,97.70
2018-06-21T23:07:43.134Z,97.80
2018-06-21T23:10:17.034Z,97.60
2018-06-21T23:12:49.293Z,97.60
2018-06-21T23:15:19.112Z,97.60
2018-06-21T23:17:50.034Z,97.50
2018-06-21T23:20:20.156Z,97.50
2018-06-21T23:22:50.626Z,97.50
2018-06-21T23:25:20.126Z,97.40
2018-06-21T23:27:52.056Z,97.70
2018-06-21T23:30:21.832Z,97.80
2018-06-21T23:32:52.479Z,98.00
2018-06-21T23:35:22.571Z,97.60
2018-06-21T23:37:53.976Z,97.50
2018-06-21T23:40:24.465Z,97.50
2018-06-21T23:42:55.361Z,97.70
2018-06-21T23:45:26.664Z,97.60
2018-06-21T23:47:55.742Z,97.30
2018-06-21T23:50:26.331Z,97.60
2018-06-21T23:52:57.477Z,97.40
2018-06-21T23:55:26.679Z,97.70
2018-06-21T23:57:56.890Z,97.10
